KBFIKPWT

Guest
Details From KBFI - Boeing Field King Co Intl
To KPWT - Bremerton National
Flight Number -
Tags Routegen
Created
Modified
Stats Distance 19 nm / 35 km
Max Altitude 0 ft / 0 m
Waypoints 2
Social Downloads 2
Likes 0
Share VATSIM

Download

Looking for another format? Having issues loading an existing format? Contact us
Advertisement - Login to hide

Notes

None

Route

KBFI KPWT

ID Type Via Altitude Latitude Longitude Leg Dist Tot Dist Heading (true) Name
O KBFI APT - 0 ft / 0 m 47.53802˚ -122.30746˚ - 0 nm - -
O KPWT APT - 0 ft / 0 m 47.48333˚ -122.77138˚ 19 nm 19 nm 260° / 260° -

Altitude Profile

Advertisement - Login to hide

KBFI

Details ICAO KBFI (BFI)
Name Boeing Field King Co Intl
Region United States
Timezone America/Los_Angeles (UTC-8.0)
Stats Elevation 20 ft / 6 m (AMSL)
Location 47.531101° -122.302515°
Runways 2
Magnetic Variation 15.703° E

METAR

KBFI 140953Z 00000KT 10SM CLR 02/02 A3038 RMK AO2 SLP288 T00170017

Decode

TAF

TAF KBFI 140520Z 1406/1506 00000KT P6SM BKN250 FM140900 00000KT P6SM SCT250 FM141300 00000KT 2SM BR SCT002 FM141500 00000KT 1/2SM FG VV002 FM142100 VRB03KT P6SM SCT250

Decode

Departure Runways

ID Width Length Bearing (true) Bearing (mag) Surface Threshold Offset Overrun Length
13L 100 ft / 30 m 3,708 ft / 1,130 m 150.28° 134.58° Asphalt 240 ft / 73 m 0 ft / 0 m
13R 200 ft / 61 m 9,997 ft / 3,047 m 150.27° 134.57° Asphalt 0 ft / 0 m 896 ft / 273 m
31L 200 ft / 61 m 9,997 ft / 3,047 m 330.29° 314.59° Asphalt 879 ft / 268 m 151 ft / 46 m
31R 100 ft / 30 m 3,708 ft / 1,130 m 330.28° 314.58° Asphalt 364 ft / 111 m 0 ft / 0 m

KPWT

Details ICAO KPWT (PWT)
Name Bremerton National
Region United States
Timezone America/Los_Angeles (UTC-8.0)
Stats Elevation 444 ft / 135 m (AMSL)
Location 47.490240° -122.764815°
Runways 1
Magnetic Variation 15.776° E

METAR

KPWT 140956Z AUTO 00000KT 10SM CLR 03/02 A3037 RMK AO2 SLP303 T00280017

Decode

TAF

TAF KPWT 140520Z 1406/1506 00000KT P6SM BKN250 FM140900 04006KT P6SM SCT250 FM141200 04006KT 1/2SM FG VV002 FM142100 VRB03KT P6SM SCT250

Decode

Destination Runways

ID Width Length Bearing (true) Bearing (mag) Surface Threshold Offset Overrun Length
01 151 ft / 46 m 5,997 ft / 1,828 m 32.69° 16.91° Asphalt 0 ft / 0 m 0 ft / 0 m
19 151 ft / 46 m 5,997 ft / 1,828 m 212.70° 196.92° Asphalt 0 ft / 0 m 1,243 ft / 379 m

Approach Navaids

Runway Type Ident Frequency Range Bearing (true) Bearing (mag) Slope Elevation
19 Localiser IPWT 111.10 MHz 18 nm / 33 km 212.69° 196.92° - 444 ft / 135 m (AMSL)
19 Glidescope IPWT 111.10 MHz 10 nm / 19 km 212.69° 196.92° 3.00° 436 ft / 133 m (AMSL)